Data for 04/23/2008

Time Sea-Level Adjusted Pressure Absolute Pressure Temperature Relative Humidity Dew Point   
(mb) (inHg) (mb) (inHg) (C) (F) (%) (C) (F)
00:05 1014 29.94 843 24.89 3 37.3 48 -7 19.5
00:10 1014 29.94 843 24.89 2.7 36.9 48 -7.1 19.2
00:15 1014 29.94 843 24.89 2.7 36.8 49 -7.1 19.3
00:20 1014 29.94 843 24.89 2.6 36.7 49 -7 19.3
00:25 1014 29.94 843 24.89 2.7 36.9 48 -7.3 18.9
00:30 1014 29.94 843 24.89 2.7 36.9 49 -7.1 19.2
00:35 1014 29.94 843 24.89 2.6 36.6 49 -7.1 19.3
00:40 1013 29.91 843 24.89 2.5 36.5 48 -7.4 18.7
00:45 1014 29.94 843 24.89 2.5 36.6 48 -7.3 18.9
00:50 1014 29.94 843 24.89 2.6 36.6 48 -7.4 18.7
00:55 1013 29.91 843 24.89 2.6 36.6 48 -7.4 18.7
01:00 1013 29.91 843 24.89 2.5 36.5 48 -7.5 18.5
01:05 1013 29.91 842 24.86 2.4 36.3 48 -7.4 18.6
01:10 1013 29.91 842 24.86 2.2 36 49 -7.5 18.6
01:15 1013 29.91 842 24.86 2.1 35.8 49 -7.5 18.5
01:20 1013 29.91 842 24.86 1.9 35.5 49 -7.6 18.3
01:25 1013 29.91 842 24.86 1.8 35.3 49 -7.7 18.2
01:30 1013 29.91 842 24.86 1.7 35 50 -7.7 18.2
01:35 1013 29.91 842 24.86 1.5 34.8 50 -7.7 18.1
01:40 1013 29.91 842 24.86 1.4 34.6 50 -7.8 18
01:45 1013 29.91 842 24.86 1.4 34.5 50 -7.8 17.9
01:50 1013 29.91 842 24.86 1.3 34.4 51 -7.8 18
01:55 1013 29.91 842 24.86 1.3 34.3 50 -8 17.6
02:00 1013 29.91 842 24.86 1.3 34.3 50 -7.9 17.7
02:05 1013 29.91 842 24.86 1.2 34.2 50 -8 17.7
02:10 1013 29.91 842 24.86 1.2 34.1 51 -8 17.6
02:15 1013 29.91 842 24.86 1.1 34 51 -8 17.5
02:20 1013 29.91 842 24.86 1 33.9 50 -8.1 17.4
02:25 1013 29.91 842 24.86 1 33.8 51 -8.1 17.3
02:30 1012 29.88 842 24.86 0.9 33.6 51 -8.1 17.3
02:35 1012 29.88 842 24.86 0.9 33.6 51 -8.3 17.1
02:40 1012 29.88 842 24.86 0.8 33.4 51 -8.2 17.3
02:45 1012 29.88 841 24.83 0.7 33.2 51 -8.3 17.1
02:50 1012 29.88 841 24.83 0.6 33.2 51 -8.3 17.1
02:55 1012 29.88 841 24.83 0.6 33 52 -8.3 17.1
03:00 1012 29.88 841 24.83 0.4 32.8 52 -8.3 17
03:05 1012 29.88 841 24.83 0.3 32.6 52 -8.3 17
03:10 1012 29.88 841 24.83 0.2 32.3 53 -8.4 17
03:15 1012 29.88 841 24.83 0 32.1 53 -8.4 17
03:20 1012 29.88 841 24.83 -0.1 31.9 54 -8.4 16.9
03:25 1012 29.88 841 24.83 -0.2 31.7 54 -8.4 16.9
03:30 1011 29.85 841 24.83 -0.3 31.5 55 -8.4 16.9
03:35 1011 29.85 841 24.83 -0.5 31.2 55 -8.3 17
03:40 1011 29.85 841 24.83 -0.6 31 56 -8.3 17
03:45 1011 29.85 841 24.83 -0.6 30.9 56 -8.3 17
03:50 1011 29.85 841 24.83 -0.7 30.7 57 -8.3 17.1
03:55 1011 29.85 840 24.81 -0.9 30.4 58 -8.2 17.2
04:00 1011 29.85 840 24.81 -1 30.1 59 -8.2 17.3
04:05 1011 29.85 840 24.81 -1.2 29.9 59 -8.2 17.3
04:10 1011 29.85 840 24.81 -1.3 29.7 59 -8.2 17.2
04:15 1011 29.85 840 24.81 -1.4 29.5 60 -8.1 17.4
04:20 1011 29.85 840 24.81 -1.5 29.3 61 -8 17.5
04:25 1011 29.85 840 24.81 -1.6 29.1 61 -8.1 17.4
04:30 1011 29.85 840 24.81 -1.5 29.3 61 -8 17.6
04:35 1011 29.85 840 24.81 -1.6 29.1 62 -8 17.6
04:40 1011 29.85 840 24.81 -1.7 28.9 62 -8 17.6
04:45 1011 29.85 840 24.81 -1.7 28.9 62 -8 17.6
04:50 1011 29.85 840 24.81 -1.7 28.9 63 -8 17.7
04:55 1011 29.85 840 24.81 -1.8 28.7 63 -7.9 17.8
05:00 1011 29.85 840 24.81 -1.9 28.6 64 -7.9 17.8
05:05 1011 29.85 840 24.81 -1.9 28.6 63 -7.9 17.7
05:10 1011 29.85 840 24.81 -1.8 28.7 63 -7.9 17.8
05:15 1011 29.85 840 24.81 -1.9 28.6 64 -7.8 17.9
05:20 1011 29.85 840 24.81 -2 28.4 64 -7.9 17.8
05:25 1011 29.85 840 24.81 -2.2 28.1 65 -7.9 17.8
05:30 1011 29.85 840 24.81 -2.2 28 65 -7.9 17.8
05:35 1011 29.85 840 24.81 -2.3 27.8 66 -7.9 17.8
05:40 1011 29.85 840 24.81 -2.4 27.7 66 -7.9 17.7
05:45 1011 29.85 840 24.81 -2.4 27.6 66 -7.9 17.8
05:50 1011 29.85 840 24.81 -2.5 27.6 66 -7.9 17.8
05:55 1011 29.85 840 24.81 -2.3 27.8 66 -7.9 17.8
06:00 1011 29.85 840 24.81 -2.4 27.7 67 -7.8 18
06:05 1011 29.85 840 24.81 -2.6 27.4 67 -7.8 18
06:10 1010 29.83 840 24.81 -2.7 27.1 68 -7.9 17.9
06:15 1010 29.83 840 24.81 -2.8 27 69 -7.8 17.9
06:20 1011 29.85 840 24.81 -2.7 27.1 68 -7.8 17.9
06:25 1010 29.83 840 24.81 -2.5 27.5 67 -7.7 18.1
06:30 1011 29.85 840 24.81 -2.7 27.1 68 -7.8 18
06:35 1011 29.85 840 24.81 -2.9 26.8 69 -7.9 17.8
06:40 1011 29.85 840 24.81 -2.9 26.9 69 -7.9 17.9
06:45 1011 29.85 840 24.81 -2.9 26.8 69 -7.9 17.9
06:50 1011 29.85 840 24.81 -2.8 26.9 68 -7.8 17.9
06:55 1011 29.85 840 24.81 -2.9 26.9 69 -7.8 17.9
07:00 1011 29.85 840 24.81 -2.9 26.8 69 -7.8 17.9
07:05 1011 29.85 840 24.81 -2.9 26.7 69 -7.9 17.8
07:10 1011 29.85 840 24.81 -2.9 26.8 69 -7.9 17.8
07:15 1011 29.85 840 24.81 -2.9 26.9 68 -7.9 17.8
07:20 1011 29.85 840 24.81 -2.9 26.9 68 -7.9 17.8
07:25 1011 29.85 840 24.81 -2.9 26.8 68 -7.9 17.7
07:30 1011 29.85 840 24.81 -3 26.6 69 -7.9 17.8
07:35 1011 29.85 840 24.81 -3 26.6 69 -8 17.7
07:40 1011 29.85 840 24.81 -2.9 26.7 68 -7.9 17.7
07:45 1011 29.85 840 24.81 -2.9 26.8 68 -7.9 17.8
07:50 1011 29.85 840 24.81 -3 26.5 69 -7.9 17.7
07:55 1011 29.85 840 24.81 -3 26.5 69 -7.9 17.7
08:00 1011 29.85 840 24.81 -3 26.6 69 -7.9 17.8
08:05 1011 29.85 840 24.81 -2.9 26.9 69 -7.8 17.9
08:10 1011 29.85 840 24.81 -2.9 26.8 69 -7.9 17.8
08:15 1011 29.85 840 24.81 -2.8 26.9 68 -7.9 17.9
08:20 1011 29.85 840 24.81 -2.9 26.8 69 -7.9 17.8
08:25 1011 29.85 840 24.81 -2.9 26.8 69 -7.9 17.9
08:30 1011 29.85 840 24.81 -2.7 27.1 68 -7.8 17.9
08:35 1011 29.85 840 24.81 -2.6 27.2 68 -7.8 18
08:40 1011 29.85 840 24.81 -2.5 27.5 67 -7.7 18.1
08:45 1011 29.85 840 24.81 -2.3 27.8 67 -7.7 18.1
08:50 1011 29.85 840 24.81 -2.4 27.7 67 -7.8 18
08:55 1011 29.85 840 24.81 -2.2 28 66 -7.7 18.1
09:00 1011 29.85 840 24.81 -2 28.4 65 -7.6 18.2
09:05 1011 29.85 840 24.81 -2 28.5 65 -7.6 18.3
09:10 1011 29.85 840 24.81 -1.7 28.9 64 -7.6 18.3
09:15 1011 29.85 840 24.81 -1.7 28.9 64 -7.6 18.4
09:20 1011 29.85 840 24.81 -1.6 29.1 64 -7.5 18.5
09:25 1011 29.85 840 24.81 -1.4 29.4 64 -7.4 18.6
09:30 1011 29.85 840 24.81 -1.3 29.7 63 -7.5 18.5
09:35 1011 29.85 840 24.81 -1.2 29.8 63 -7.5 18.6
09:40 1011 29.85 840 24.81 -1.3 29.7 63 -7.5 18.6
09:45 1011 29.85 840 24.81 -1.1 30 62 -7.5 18.5
09:50 1011 29.85 840 24.81 -1 30.1 61 -7.5 18.4
09:55 1010 29.83 840 24.81 -1 30.2 61 -7.5 18.5
10:00 1010 29.83 840 24.81 -0.8 30.6 61 -7.5 18.6
10:05 1010 29.83 839 24.78 -0.7 30.7 60 -7.6 18.4
10:10 1010 29.83 840 24.81 -0.6 31 59 -7.6 18.4
10:15 1010 29.83 840 24.81 -0.4 31.3 58 -7.6 18.3
10:20 1010 29.83 839 24.78 -0.2 31.6 58 -7.5 18.4
10:25 1010 29.83 839 24.78 -0.1 31.8 57 -7.6 18.3
10:30 1010 29.83 839 24.78 0.2 32.4 56 -7.5 18.5
10:35 1010 29.83 839 24.78 0.4 32.7 57 -7.3 18.9
10:40 1010 29.83 839 24.78 0.7 33.3 55 -7.4 18.8
10:45 1010 29.83 839 24.78 0.8 33.5 55 -7.3 18.9
10:50 1010 29.83 839 24.78 1.1 34.1 54 -7.1 19.1
10:55 1010 29.83 839 24.78 1.3 34.4 53 -7.2 19
11:00 1010 29.83 839 24.78 1.7 35 52 -7.2 19
11:05 1010 29.83 839 24.78 1.8 35.2 51 -7.2 19
11:10 1010 29.83 839 24.78 1.7 35.1 52 -7.1 19.2
11:15 1010 29.83 839 24.78 1.9 35.4 52 -7 19.4
11:20 1010 29.83 839 24.78 2.1 35.7 51 -7 19.4
11:25 1010 29.83 839 24.78 2.2 35.9 51 -6.9 19.5
11:30 1010 29.83 839 24.78 2.2 36 51 -6.9 19.6
11:35 1010 29.83 839 24.78 2.3 36.1 51 -6.7 19.9
11:40 1010 29.83 839 24.78 2.4 36.3 51 -6.7 20
11:45 1009 29.8 839 24.78 2.3 36.2 52 -6.6 20
11:50 1009 29.8 839 24.78 2.4 36.3 52 -6.5 20.2
11:55 1009 29.8 839 24.78 2.4 36.3 51 -6.6 20.1
12:00 1009 29.8 839 24.78 2.6 36.6 51 -6.7 19.9
12:05 1009 29.8 838 24.75 2.8 37.1 50 -6.6 20.1
12:10 1009 29.8 838 24.75 3.2 37.7 50 -6.3 20.7
12:15 1009 29.8 838 24.75 3.5 38.2 48 -6.4 20.4
12:20 1009 29.8 838 24.75 3.5 38.4 49 -6.2 20.9
12:25 1009 29.8 838 24.75 3.4 38.1 50 -6.2 20.8
12:30 1009 29.8 838 24.75 3.6 38.4 48 -6.5 20.3
12:35 1009 29.8 838 24.75 4 39.2 47 -6.3 20.6
12:40 1009 29.8 838 24.75 4.1 39.4 47 -6.1 20.9
12:45 1009 29.8 838 24.75 4 39.2 48 -6.1 21
12:50 1009 29.8 838 24.75 4.3 39.8 47 -6.1 21
12:55 1009 29.8 838 24.75 4.5 40.2 47 -5.9 21.4
13:00 1009 29.8 838 24.75 4.7 40.5 47 -5.8 21.6
13:05 1009 29.8 838 24.75 5 41.1 45 -5.8 21.6
13:10 1009 29.8 838 24.75 5.2 41.4 46 -5.4 22.3
13:15 1009 29.8 838 24.75 4.9 40.8 49 -4.9 23.1
13:20 1009 29.8 838 24.75 5.6 42.1 46 -5 22.9
13:25 1009 29.8 838 24.75 5.2 41.3 49 -4.6 23.7
13:30 1009 29.8 838 24.75 5.5 41.8 48 -4.6 23.6
13:35 1009 29.8 838 24.75 6 42.7 47 -4.5 23.9
13:40 1009 29.8 838 24.75 5.9 42.7 48 -4.3 24.2
13:45 1009 29.8 838 24.75 6.5 43.8 46 -4.3 24.3
13:50 1009 29.8 838 24.75 6.6 43.9 46 -4.2 24.4
13:55 1009 29.8 839 24.78 6.6 43.8 47 -4 24.7
14:00 1009 29.8 839 24.78 6.5 43.7 46 -4.2 24.5
14:05 1009 29.8 839 24.78 6.7 44.1 45 -4.2 24.4
14:10 1009 29.8 838 24.75 6.7 44.1 46 -4.2 24.4
14:15 1009 29.8 838 24.75 7.2 45 44 -4.3 24.3
14:20 1009 29.8 838 24.75 7.5 45.4 43 -4.4 24.1
14:25 1009 29.8 838 24.75 7.3 45.1 46 -3.6 25.6
14:30 1009 29.8 838 24.75 7 44.6 46 -3.7 25.4
14:35 1009 29.8 838 24.75 6.6 43.9 48 -3.6 25.6
14:40 1009 29.8 838 24.75 6.7 44.1 48 -3.6 25.6
14:45 1009 29.8 838 24.75 6.4 43.6 48 -3.7 25.3
14:50 1009 29.8 838 24.75 6.3 43.3 49 -3.7 25.3
14:55 1009 29.8 838 24.75 7.2 44.9 47 -3.4 25.9
15:00 1009 29.8 838 24.75 7.5 45.5 46 -3.3 26.1
15:05 1009 29.8 839 24.78 7.2 45 47 -3.4 25.8
15:10 1009 29.8 838 24.75 7 44.7 47 -3.4 25.8
15:15 1009 29.8 838 24.75 6.3 43.3 49 -3.6 25.5
15:20 1009 29.8 838 24.75 6 42.9 50 -3.6 25.6
15:25 1009 29.8 838 24.75 6.8 44.3 48 -3.5 25.6
15:30 1009 29.8 838 24.75 6.4 43.5 49 -3.6 25.5
15:35 1009 29.8 838 24.75 6.5 43.7 50 -3.2 26.2
15:40 1009 29.8 838 24.75 7 44.6 49 -3.1 26.4
15:45 1009 29.8 838 24.75 7.1 44.7 49 -3 26.6
15:50 1009 29.8 838 24.75 7.6 45.6 46 -3.2 26.2
15:55 1009 29.8 838 24.75 7.3 45.1 48 -3.1 26.4
16:00 1009 29.8 838 24.75 7.9 46.2 45 -3.3 26
16:05 1009 29.8 838 24.75 8.7 47.7 44 -2.8 26.9
16:10 1009 29.8 838 24.75 8 46.4 45 -3.2 26.2
16:15 1009 29.8 838 24.75 8.2 46.8 45 -2.9 26.8
16:20 1009 29.8 838 24.75 7.6 45.6 48 -2.8 26.9
16:25 1009 29.8 838 24.75 7.1 44.8 48 -3.1 26.5
16:30 1009 29.8 838 24.75 7.7 45.9 47 -3 26.6
16:35 1009 29.8 838 24.75 7.8 46 47 -2.8 27
16:40 1009 29.8 838 24.75 7.8 46 47 -2.9 26.7
16:45 1009 29.8 838 24.75 7.9 46.2 47 -2.8 27
16:50 1009 29.8 838 24.75 8 46.4 46 -2.7 27.1
16:55 1009 29.8 838 24.75 7.8 46 48 -2.6 27.2
17:00 1009 29.8 838 24.75 7.4 45.3 49 -2.6 27.4
17:05 1009 29.8 838 24.75 7.4 45.3 49 -2.6 27.3
17:10 1009 29.8 838 24.75 7.3 45.1 49 -2.8 27
17:15 1009 29.8 838 24.75 7 44.7 49 -2.8 26.9
17:20 1009 29.8 839 24.78 6.7 44.1 50 -2.9 26.7
17:25 1010 29.83 839 24.78 6.3 43.4 51 -3 26.7
17:30 1010 29.83 839 24.78 6.1 43.1 52 -3 26.6
17:35 1010 29.83 839 24.78 6 42.8 53 -2.9 26.8
17:40 1010 29.83 839 24.78 5.6 42.2 56 -2.4 27.7
17:45 1009 29.8 839 24.78 5.1 41.2 61 -1.8 28.7
17:50 1010 29.83 839 24.78 4.6 40.3 66 -1.1 30
17:55 1010 29.83 839 24.78 3.9 39 70 -1 30.1
18:00 1009 29.8 839 24.78 3.5 38.3 75 -0.5 31
18:05 1009 29.8 839 24.78 3.2 37.8 77 -0.4 31.3
18:10 1009 29.8 839 24.78 3.4 38 80 0.2 32.3
18:15 1009 29.8 839 24.78 3.1 37.6 82 0.3 32.5
18:20 1009 29.8 838 24.75 3.2 37.7 83 0.5 32.9
18:25 1009 29.8 839 24.78 3.4 38.1 82 0.7 33.2
18:30 1009 29.8 839 24.78 3.8 38.8 81 0.9 33.6
18:35 1009 29.8 839 24.78 4.1 39.5 81 1.2 34.2
18:40 1010 29.83 839 24.78 4.3 39.7 80 1.1 34
18:45 1010 29.83 839 24.78 4.2 39.5 80 1 33.7
18:50 1010 29.83 839 24.78 4.4 39.8 78 0.8 33.5
18:55 1010 29.83 839 24.78 4.6 40.4 76 0.8 33.4
19:00 1009 29.8 839 24.78 4.9 40.8 74 0.7 33.2
19:05 1009 29.8 839 24.78 5.1 41.2 72 0.4 32.7
19:10 1009 29.8 839 24.78 5.3 41.6 71 0.4 32.8
19:15 1009 29.8 838 24.75 5.5 41.8 71 0.7 33.2
19:20 1009 29.8 838 24.75 5.3 41.5 71 0.5 32.9
19:25 1009 29.8 838 24.75 4.9 40.7 76 1 33.9
19:30 1009 29.8 838 24.75 4.1 39.4 80 1.1 33.9
19:35 1009 29.8 838 24.75 3.9 39 82 1.1 34
19:40 1009 29.8 838 24.75 3.8 38.9 83 1.2 34.2
19:45 1009 29.8 838 24.75 3.7 38.7 84 1.3 34.4
19:50 1009 29.8 838 24.75 3.6 38.5 86 1.4 34.5
19:55 1009 29.8 839 24.78 3.8 38.8 86 1.6 34.9
20:00 1009 29.8 839 24.78 4 39.3 86 1.9 35.3
20:05 1010 29.83 839 24.78 4.1 39.3 86 2 35.6
20:10 1010 29.83 839 24.78 4 39.1 87 2 35.5
20:15 1010 29.83 839 24.78 3.9 39 87 2 35.5
20:20 1010 29.83 839 24.78 3.7 38.7 88 1.9 35.5
20:25 1010 29.83 839 24.78 3.2 37.8 90 1.7 35.1
20:30 1010 29.83 839 24.78 3 37.5 91 1.7 35
20:35 1010 29.83 839 24.78 3 37.4 91 1.7 35.1
20:40 1010 29.83 840 24.81 2.8 37.1 92 1.7 35.1
20:45 1010 29.83 840 24.81 2.7 36.9 93 1.7 35
20:50 1011 29.85 840 24.81 2.5 36.4 94 1.5 34.8
20:55 1011 29.85 840 24.81 2.4 36.4 94 1.6 34.8
21:00 1011 29.85 840 24.81 2.4 36.4 94 1.6 34.9
21:05 1011 29.85 840 24.81 2.4 36.3 94 1.6 34.8
21:10 1011 29.85 840 24.81 2.5 36.4 94 1.6 34.9
21:15 1011 29.85 841 24.83 2.5 36.5 94 1.6 35
21:20 1012 29.88 841 24.83 2.4 36.3 94 1.6 34.9
21:25 1012 29.88 841 24.83 2.4 36.2 95 1.6 34.9
21:30 1012 29.88 841 24.83 2.4 36.3 94 1.6 34.8
21:35 1012 29.88 841 24.83 2.1 35.8 95 1.3 34.4
21:40 1012 29.88 841 24.83 1.9 35.5 95 1.3 34.3
21:45 1012 29.88 841 24.83 1.7 35.1 96 1.1 34
21:50 1012 29.88 841 24.83 1.5 34.7 96 0.9 33.7
21:55 1012 29.88 841 24.83 1.1 33.9 97 0.7 33.2
22:00 1012 29.88 841 24.83 0.8 33.4 98 0.5 33
22:05 1012 29.88 841 24.83 0.7 33.3 99 0.6 33
22:10 1012 29.88 841 24.83 0.8 33.4 99 0.6 33.2
22:15 1012 29.88 841 24.83 1 33.7 99 0.9 33.6
22:20 1012 29.88 841 24.83 1.1 34 99 1 33.8
22:25 1012 29.88 841 24.83 1.2 34.2 99 1.1 34
22:30 1012 29.88 841 24.83 1.1 34 129 4.7 40.5
22:35 1012 29.88 841 24.83 1.1 34 164 8.1 46.7
22:40 1012 29.88 841 24.83 1.1 34 164 8.1 46.7
22:45 1012 29.88 841 24.83 1 33.7 164 8 46.4
22:50 1012 29.88 841 24.83 0.9 33.6 164 7.9 46.2
22:55 1011 29.85 841 24.83 0.9 33.6 164 7.9 46.2
23:00 1011 29.85 841 24.83 0.9 33.6 164 7.9 46.3
23:05 1011 29.85 841 24.83 1 33.7 164 8 46.4
23:10 1011 29.85 841 24.83 1 33.9 164 8.1 46.6
23:15 1012 29.88 841 24.83 1 33.9 164 8.1 46.6
23:20 1011 29.85 841 24.83 1 33.8 164 8 46.5
23:25 1012 29.88 841 24.83 1.1 33.9 164 8.1 46.6
23:30 1012 29.88 841 24.83 1.1 34 164 8.2 46.7
23:35 1011 29.85 841 24.83 1.2 34.2 164 8.3 46.9
23:40 1011 29.85 841 24.83 1.3 34.3 164 8.3 47
23:45 1011 29.85 841 24.83 1.3 34.3 164 8.3 47
23:50 1011 29.85 841 24.83 1.3 34.3 164 8.3 47
23:55 1011 29.85 841 24.83 1.3 34.3 164 8.4 47
24:00 1011 29.85 841 24.83 1.2 34.2 164 8.3 46.9